sensor_id;sensor_type;location;lat;lon;timestamp;P1;durP1;ratioP1;P2;durP2;ratioP2
29958;SDS011;16815;51.100;6.516;2023-11-19T00:00:09;1.20;;;1.10;;
29958;SDS011;16815;51.100;6.516;2023-11-19T00:02:39;2.00;;;1.20;;
29958;SDS011;16815;51.100;6.516;2023-11-19T00:05:05;1.10;;;1.00;;
29958;SDS011;16815;51.100;6.516;2023-11-19T00:07:37;2.33;;;1.20;;
29958;SDS011;16815;51.100;6.516;2023-11-19T00:10:09;1.23;;;1.13;;
29958;SDS011;16815;51.100;6.516;2023-11-19T00:12:40;1.87;;;1.33;;
29958;SDS011;16815;51.100;6.516;2023-11-19T00:15:06;1.77;;;0.97;;
29958;SDS011;16815;51.100;6.516;2023-11-19T00:17:42;2.00;;;1.00;;
29958;SDS011;16815;51.100;6.516;2023-11-19T00:20:09;1.07;;;1.07;;
29958;SDS011;16815;51.100;6.516;2023-11-19T00:22:35;0.77;;;0.77;;
29958;SDS011;16815;51.100;6.516;2023-11-19T00:25:01;2.00;;;1.30;;
29958;SDS011;16815;51.100;6.516;2023-11-19T00:27:28;2.27;;;1.20;;
29958;SDS011;16815;51.100;6.516;2023-11-19T00:29:54;0.90;;;0.90;;
29958;SDS011;16815;51.100;6.516;2023-11-19T00:32:20;0.90;;;0.90;;
29958;SDS011;16815;51.100;6.516;2023-11-19T00:34:46;1.40;;;1.13;;
29958;SDS011;16815;51.100;6.516;2023-11-19T00:37:12;1.47;;;0.80;;
29958;SDS011;16815;51.100;6.516;2023-11-19T00:39:38;1.40;;;1.17;;
29958;SDS011;16815;51.100;6.516;2023-11-19T00:42:04;2.87;;;1.00;;
29958;SDS011;16815;51.100;6.516;2023-11-19T00:44:30;0.70;;;0.70;;
29958;SDS011;16815;51.100;6.516;2023-11-19T00:46:56;0.90;;;0.90;;
29958;SDS011;16815;51.100;6.516;2023-11-19T00:49:23;0.90;;;0.90;;
29958;SDS011;16815;51.100;6.516;2023-11-19T00:51:48;0.90;;;0.70;;
29958;SDS011;16815;51.100;6.516;2023-11-19T00:54:15;0.80;;;0.70;;
29958;SDS011;16815;51.100;6.516;2023-11-19T00:56:40;1.03;;;0.90;;
29958;SDS011;16815;51.100;6.516;2023-11-19T00:59:06;0.90;;;0.90;;
29958;SDS011;16815;51.100;6.516;2023-11-19T01:01:32;1.20;;;1.10;;
29958;SDS011;16815;51.100;6.516;2023-11-19T01:03:58;1.20;;;0.73;;
29958;SDS011;16815;51.100;6.516;2023-11-19T01:06:31;0.70;;;0.70;;
29958;SDS011;16815;51.100;6.516;2023-11-19T01:08:57;0.80;;;0.80;;
29958;SDS011;16815;51.100;6.516;2023-11-19T01:11:24;0.90;;;0.90;;
29958;SDS011;16815;51.100;6.516;2023-11-19T01:13:50;1.70;;;0.70;;
29958;SDS011;16815;51.100;6.516;2023-11-19T01:16:16;1.57;;;0.97;;
29958;SDS011;16815;51.100;6.516;2023-11-19T01:18:42;1.17;;;0.87;;
29958;SDS011;16815;51.100;6.516;2023-11-19T01:21:08;0.73;;;0.73;;
29958;SDS011;16815;51.100;6.516;2023-11-19T01:23:34;1.03;;;0.80;;
29958;SDS011;16815;51.100;6.516;2023-11-19T01:26:02;0.80;;;0.80;;
29958;SDS011;16815;51.100;6.516;2023-11-19T01:28:28;2.30;;;0.73;;
29958;SDS011;16815;51.100;6.516;2023-11-19T01:30:55;1.07;;;0.90;;
29958;SDS011;16815;51.100;6.516;2023-11-19T01:33:21;1.23;;;0.90;;
29958;SDS011;16815;51.100;6.516;2023-11-19T01:35:47;1.10;;;1.00;;
29958;SDS011;16815;51.100;6.516;2023-11-19T01:38:13;1.50;;;1.00;;
29958;SDS011;16815;51.100;6.516;2023-11-19T01:40:39;1.40;;;1.20;;
29958;SDS011;16815;51.100;6.516;2023-11-19T01:43:05;2.37;;;1.43;;
29958;SDS011;16815;51.100;6.516;2023-11-19T01:45:31;3.30;;;1.23;;
29958;SDS011;16815;51.100;6.516;2023-11-19T01:47:59;3.23;;;1.50;;
29958;SDS011;16815;51.100;6.516;2023-11-19T01:50:26;3.70;;;1.50;;
29958;SDS011;16815;51.100;6.516;2023-11-19T01:52:55;3.90;;;1.70;;
29958;SDS011;16815;51.100;6.516;2023-11-19T01:55:22;4.53;;;1.80;;
29958;SDS011;16815;51.100;6.516;2023-11-19T01:57:49;4.30;;;1.60;;
29958;SDS011;16815;51.100;6.516;2023-11-19T02:00:16;3.40;;;1.57;;
29958;SDS011;16815;51.100;6.516;2023-11-19T02:02:42;4.77;;;1.73;;
29958;SDS011;16815;51.100;6.516;2023-11-19T02:05:12;4.97;;;2.00;;
29958;SDS011;16815;51.100;6.516;2023-11-19T02:07:38;3.37;;;1.60;;
29958;SDS011;16815;51.100;6.516;2023-11-19T02:10:05;6.73;;;2.27;;
29958;SDS011;16815;51.100;6.516;2023-11-19T02:12:34;4.43;;;1.87;;
29958;SDS011;16815;51.100;6.516;2023-11-19T02:15:00;3.93;;;1.57;;
29958;SDS011;16815;51.100;6.516;2023-11-19T02:17:27;3.83;;;1.90;;
29958;SDS011;16815;51.100;6.516;2023-11-19T02:19:53;6.33;;;2.40;;
29958;SDS011;16815;51.100;6.516;2023-11-19T02:22:19;5.47;;;2.00;;
29958;SDS011;16815;51.100;6.516;2023-11-19T02:24:46;6.50;;;2.13;;
29958;SDS011;16815;51.100;6.516;2023-11-19T02:27:19;5.63;;;2.30;;
29958;SDS011;16815;51.100;6.516;2023-11-19T02:29:47;6.30;;;2.40;;
29958;SDS011;16815;51.100;6.516;2023-11-19T02:32:12;7.53;;;2.50;;
29958;SDS011;16815;51.100;6.516;2023-11-19T02:34:39;4.17;;;2.03;;
29958;SDS011;16815;51.100;6.516;2023-11-19T02:37:05;8.10;;;2.60;;
29958;SDS011;16815;51.100;6.516;2023-11-19T02:39:31;8.67;;;2.90;;
29958;SDS011;16815;51.100;6.516;2023-11-19T02:41:57;9.87;;;2.40;;
29958;SDS011;16815;51.100;6.516;2023-11-19T02:44:23;5.93;;;2.60;;
29958;SDS011;16815;51.100;6.516;2023-11-19T02:46:49;7.23;;;2.93;;
29958;SDS011;16815;51.100;6.516;2023-11-19T02:49:15;8.73;;;2.43;;
29958;SDS011;16815;51.100;6.516;2023-11-19T02:51:41;5.33;;;2.20;;
29958;SDS011;16815;51.100;6.516;2023-11-19T02:54:06;6.30;;;2.43;;
29958;SDS011;16815;51.100;6.516;2023-11-19T02:56:32;6.17;;;2.50;;
29958;SDS011;16815;51.100;6.516;2023-11-19T02:59:02;7.23;;;2.50;;
29958;SDS011;16815;51.100;6.516;2023-11-19T03:01:40;7.17;;;2.47;;
29958;SDS011;16815;51.100;6.516;2023-11-19T03:04:09;7.80;;;2.20;;
29958;SDS011;16815;51.100;6.516;2023-11-19T03:06:37;7.03;;;2.50;;
29958;SDS011;16815;51.100;6.516;2023-11-19T03:09:03;7.97;;;2.87;;
29958;SDS011;16815;51.100;6.516;2023-11-19T03:11:35;5.40;;;1.97;;
29958;SDS011;16815;51.100;6.516;2023-11-19T03:14:01;9.17;;;2.97;;
29958;SDS011;16815;51.100;6.516;2023-11-19T03:16:28;8.80;;;3.20;;
29958;SDS011;16815;51.100;6.516;2023-11-19T03:18:54;8.97;;;2.47;;
29958;SDS011;16815;51.100;6.516;2023-11-19T03:21:27;7.50;;;2.50;;
29958;SDS011;16815;51.100;6.516;2023-11-19T03:23:52;6.80;;;2.60;;
29958;SDS011;16815;51.100;6.516;2023-11-19T03:26:18;9.57;;;2.30;;
29958;SDS011;16815;51.100;6.516;2023-11-19T03:28:44;10.70;;;2.40;;
29958;SDS011;16815;51.100;6.516;2023-11-19T03:31:10;7.03;;;2.23;;
29958;SDS011;16815;51.100;6.516;2023-11-19T03:33:36;10.00;;;2.63;;
29958;SDS011;16815;51.100;6.516;2023-11-19T03:36:02;6.87;;;3.07;;
29958;SDS011;16815;51.100;6.516;2023-11-19T03:38:28;10.57;;;2.93;;
29958;SDS011;16815;51.100;6.516;2023-11-19T03:40:54;16.60;;;3.00;;
29958;SDS011;16815;51.100;6.516;2023-11-19T03:43:20;12.57;;;2.93;;
29958;SDS011;16815;51.100;6.516;2023-11-19T03:45:46;11.20;;;3.77;;
29958;SDS011;16815;51.100;6.516;2023-11-19T03:48:13;13.47;;;3.57;;
29958;SDS011;16815;51.100;6.516;2023-11-19T03:50:41;8.87;;;3.10;;
29958;SDS011;16815;51.100;6.516;2023-11-19T03:53:07;11.43;;;2.90;;
29958;SDS011;16815;51.100;6.516;2023-11-19T03:55:33;14.00;;;3.53;;
29958;SDS011;16815;51.100;6.516;2023-11-19T03:57:59;16.10;;;3.70;;
29958;SDS011;16815;51.100;6.516;2023-11-19T04:00:25;11.27;;;3.30;;
29958;SDS011;16815;51.100;6.516;2023-11-19T04:02:52;9.87;;;3.37;;
29958;SDS011;16815;51.100;6.516;2023-11-19T04:05:18;12.23;;;2.77;;
29958;SDS011;16815;51.100;6.516;2023-11-19T04:07:44;11.47;;;2.90;;
29958;SDS011;16815;51.100;6.516;2023-11-19T04:10:10;11.77;;;3.57;;
29958;SDS011;16815;51.100;6.516;2023-11-19T05:02:26;11.87;;;3.43;;
29958;SDS011;16815;51.100;6.516;2023-11-19T05:11:16;15.33;;;3.60;;
29958;SDS011;16815;51.100;6.516;2023-11-19T05:13:55;11.63;;;2.83;;
29958;SDS011;16815;51.100;6.516;2023-11-19T05:16:49;14.20;;;4.00;;
29958;SDS011;16815;51.100;6.516;2023-11-19T05:19:24;12.00;;;3.37;;
29958;SDS011;16815;51.100;6.516;2023-11-19T05:22:10;13.20;;;3.57;;
29958;SDS011;16815;51.100;6.516;2023-11-19T05:24:38;9.00;;;3.20;;
29958;SDS011;16815;51.100;6.516;2023-11-19T05:27:08;16.27;;;3.60;;
29958;SDS011;16815;51.100;6.516;2023-11-19T05:29:36;10.93;;;3.20;;
29958;SDS011;16815;51.100;6.516;2023-11-19T05:32:04;11.73;;;3.27;;
29958;SDS011;16815;51.100;6.516;2023-11-19T05:34:30;11.80;;;3.80;;
29958;SDS011;16815;51.100;6.516;2023-11-19T05:36:56;15.83;;;3.67;;
29958;SDS011;16815;51.100;6.516;2023-11-19T05:39:22;16.43;;;3.47;;
29958;SDS011;16815;51.100;6.516;2023-11-19T05:41:49;15.67;;;3.13;;
29958;SDS011;16815;51.100;6.516;2023-11-19T05:44:15;14.53;;;3.67;;
29958;SDS011;16815;51.100;6.516;2023-11-19T05:46:41;14.63;;;3.93;;
29958;SDS011;16815;51.100;6.516;2023-11-19T05:49:11;14.60;;;3.87;;
29958;SDS011;16815;51.100;6.516;2023-11-19T05:51:38;20.97;;;4.17;;
29958;SDS011;16815;51.100;6.516;2023-11-19T05:54:08;15.87;;;4.47;;
29958;SDS011;16815;51.100;6.516;2023-11-19T05:56:35;19.73;;;3.80;;
29958;SDS011;16815;51.100;6.516;2023-11-19T05:59:01;23.53;;;4.73;;
29958;SDS011;16815;51.100;6.516;2023-11-19T06:01:28;19.23;;;4.23;;
29958;SDS011;16815;51.100;6.516;2023-11-19T06:03:54;17.97;;;4.70;;
29958;SDS011;16815;51.100;6.516;2023-11-19T06:06:20;16.27;;;4.07;;
29958;SDS011;16815;51.100;6.516;2023-11-19T06:08:46;16.33;;;5.10;;
29958;SDS011;16815;51.100;6.516;2023-11-19T06:11:12;14.10;;;3.67;;
29958;SDS011;16815;51.100;6.516;2023-11-19T06:13:46;17.90;;;3.90;;
29958;SDS011;16815;51.100;6.516;2023-11-19T06:16:16;18.13;;;4.40;;
29958;SDS011;16815;51.100;6.516;2023-11-19T06:18:42;23.13;;;5.13;;
29958;SDS011;16815;51.100;6.516;2023-11-19T06:21:08;18.47;;;4.63;;
29958;SDS011;16815;51.100;6.516;2023-11-19T06:23:35;20.33;;;4.60;;
29958;SDS011;16815;51.100;6.516;2023-11-19T06:26:00;17.83;;;4.47;;
29958;SDS011;16815;51.100;6.516;2023-11-19T06:28:28;18.00;;;4.23;;
29958;SDS011;16815;51.100;6.516;2023-11-19T06:30:54;18.90;;;4.40;;
29958;SDS011;16815;51.100;6.516;2023-11-19T06:33:23;16.93;;;4.13;;
29958;SDS011;16815;51.100;6.516;2023-11-19T06:35:49;16.07;;;4.17;;
29958;SDS011;16815;51.100;6.516;2023-11-19T06:38:15;21.93;;;4.03;;
29958;SDS011;16815;51.100;6.516;2023-11-19T06:40:41;16.57;;;3.93;;
29958;SDS011;16815;51.100;6.516;2023-11-19T06:43:07;18.43;;;4.73;;
29958;SDS011;16815;51.100;6.516;2023-11-19T06:45:34;20.70;;;5.20;;
29958;SDS011;16815;51.100;6.516;2023-11-19T06:48:01;18.53;;;4.70;;
29958;SDS011;16815;51.100;6.516;2023-11-19T06:50:31;20.77;;;4.73;;
29958;SDS011;16815;51.100;6.516;2023-11-19T06:52:57;17.53;;;3.93;;
29958;SDS011;16815;51.100;6.516;2023-11-19T06:55:23;16.07;;;4.50;;
29958;SDS011;16815;51.100;6.516;2023-11-19T06:57:49;20.10;;;4.67;;
29958;SDS011;16815;51.100;6.516;2023-11-19T07:00:15;20.40;;;4.37;;
29958;SDS011;16815;51.100;6.516;2023-11-19T07:02:41;15.90;;;4.33;;
29958;SDS011;16815;51.100;6.516;2023-11-19T07:05:09;20.10;;;4.67;;
29958;SDS011;16815;51.100;6.516;2023-11-19T07:07:37;17.20;;;4.37;;
29958;SDS011;16815;51.100;6.516;2023-11-19T07:10:03;20.00;;;5.03;;
29958;SDS011;16815;51.100;6.516;2023-11-19T07:12:30;16.23;;;4.20;;
29958;SDS011;16815;51.100;6.516;2023-11-19T07:14:56;19.57;;;4.60;;
29958;SDS011;16815;51.100;6.516;2023-11-19T07:17:22;21.90;;;4.80;;
29958;SDS011;16815;51.100;6.516;2023-11-19T07:19:49;19.00;;;4.87;;
29958;SDS011;16815;51.100;6.516;2023-11-19T07:22:16;20.20;;;4.23;;
29958;SDS011;16815;51.100;6.516;2023-11-19T07:24:42;18.47;;;5.13;;
29958;SDS011;16815;51.100;6.516;2023-11-19T07:27:08;21.90;;;4.60;;
29958;SDS011;16815;51.100;6.516;2023-11-19T07:29:35;14.93;;;3.87;;
29958;SDS011;16815;51.100;6.516;2023-11-19T07:32:01;18.50;;;5.13;;
29958;SDS011;16815;51.100;6.516;2023-11-19T07:34:27;14.63;;;4.27;;
29958;SDS011;16815;51.100;6.516;2023-11-19T07:36:54;15.87;;;3.63;;
29958;SDS011;16815;51.100;6.516;2023-11-19T07:39:24;11.37;;;4.03;;
29958;SDS011;16815;51.100;6.516;2023-11-19T07:41:50;16.50;;;4.07;;
29958;SDS011;16815;51.100;6.516;2023-11-19T07:44:16;18.23;;;4.07;;
29958;SDS011;16815;51.100;6.516;2023-11-19T07:46:46;16.93;;;3.83;;
29958;SDS011;16815;51.100;6.516;2023-11-19T07:49:13;18.77;;;4.73;;
29958;SDS011;16815;51.100;6.516;2023-11-19T07:51:39;17.23;;;4.53;;
29958;SDS011;16815;51.100;6.516;2023-11-19T07:54:05;21.50;;;4.73;;
29958;SDS011;16815;51.100;6.516;2023-11-19T07:56:34;20.90;;;4.80;;
29958;SDS011;16815;51.100;6.516;2023-11-19T07:59:03;18.40;;;3.90;;
29958;SDS011;16815;51.100;6.516;2023-11-19T08:01:29;19.63;;;5.10;;
29958;SDS011;16815;51.100;6.516;2023-11-19T08:03:55;26.07;;;5.60;;
29958;SDS011;16815;51.100;6.516;2023-11-19T08:06:21;18.30;;;4.53;;
29958;SDS011;16815;51.100;6.516;2023-11-19T08:08:47;17.30;;;4.73;;
29958;SDS011;16815;51.100;6.516;2023-11-19T08:11:13;17.83;;;5.20;;
29958;SDS011;16815;51.100;6.516;2023-11-19T08:13:40;19.67;;;4.70;;
29958;SDS011;16815;51.100;6.516;2023-11-19T08:16:07;21.30;;;4.70;;
29958;SDS011;16815;51.100;6.516;2023-11-19T08:18:33;19.20;;;4.43;;
29958;SDS011;16815;51.100;6.516;2023-11-19T08:20:58;19.17;;;4.40;;
29958;SDS011;16815;51.100;6.516;2023-11-19T08:23:25;19.23;;;4.97;;
29958;SDS011;16815;51.100;6.516;2023-11-19T08:25:53;16.67;;;4.17;;
29958;SDS011;16815;51.100;6.516;2023-11-19T08:28:21;18.70;;;4.10;;
29958;SDS011;16815;51.100;6.516;2023-11-19T08:30:47;22.87;;;4.87;;
29958;SDS011;16815;51.100;6.516;2023-11-19T08:33:13;21.77;;;5.73;;
29958;SDS011;16815;51.100;6.516;2023-11-19T08:35:40;18.17;;;5.27;;
29958;SDS011;16815;51.100;6.516;2023-11-19T08:38:05;16.17;;;4.70;;
29958;SDS011;16815;51.100;6.516;2023-11-19T08:40:31;17.60;;;4.70;;
29958;SDS011;16815;51.100;6.516;2023-11-19T08:43:01;19.83;;;4.93;;
29958;SDS011;16815;51.100;6.516;2023-11-19T08:45:27;20.70;;;4.90;;
29958;SDS011;16815;51.100;6.516;2023-11-19T08:47:53;21.60;;;4.73;;
29958;SDS011;16815;51.100;6.516;2023-11-19T08:50:19;19.50;;;5.17;;
29958;SDS011;16815;51.100;6.516;2023-11-19T08:52:45;22.13;;;5.80;;
29958;SDS011;16815;51.100;6.516;2023-11-19T08:55:11;18.10;;;5.00;;
29958;SDS011;16815;51.100;6.516;2023-11-19T08:57:38;21.47;;;5.10;;
29958;SDS011;16815;51.100;6.516;2023-11-19T09:00:04;19.90;;;5.00;;
29958;SDS011;16815;51.100;6.516;2023-11-19T09:02:34;23.67;;;5.10;;
29958;SDS011;16815;51.100;6.516;2023-11-19T09:05:02;20.50;;;4.33;;
29958;SDS011;16815;51.100;6.516;2023-11-19T09:07:28;14.87;;;4.43;;
29958;SDS011;16815;51.100;6.516;2023-11-19T09:09:54;17.50;;;5.17;;
29958;SDS011;16815;51.100;6.516;2023-11-19T09:12:20;19.10;;;5.27;;
29958;SDS011;16815;51.100;6.516;2023-11-19T09:15:05;24.57;;;4.87;;
29958;SDS011;16815;51.100;6.516;2023-11-19T09:17:31;19.37;;;5.07;;
29958;SDS011;16815;51.100;6.516;2023-11-19T09:19:57;24.60;;;5.10;;
29958;SDS011;16815;51.100;6.516;2023-11-19T09:22:23;18.57;;;5.67;;
29958;SDS011;16815;51.100;6.516;2023-11-19T09:24:49;16.13;;;4.43;;
29958;SDS011;16815;51.100;6.516;2023-11-19T09:27:15;21.60;;;4.43;;
29958;SDS011;16815;51.100;6.516;2023-11-19T09:29:41;28.20;;;5.10;;
29958;SDS011;16815;51.100;6.516;2023-11-19T09:32:08;20.17;;;4.23;;
29958;SDS011;16815;51.100;6.516;2023-11-19T09:34:34;22.67;;;4.67;;
29958;SDS011;16815;51.100;6.516;2023-11-19T09:37:00;21.93;;;4.73;;
29958;SDS011;16815;51.100;6.516;2023-11-19T09:39:27;22.07;;;5.27;;
29958;SDS011;16815;51.100;6.516;2023-11-19T09:41:53;21.13;;;4.50;;
29958;SDS011;16815;51.100;6.516;2023-11-19T09:44:22;20.23;;;5.10;;
29958;SDS011;16815;51.100;6.516;2023-11-19T09:46:49;20.83;;;5.17;;
29958;SDS011;16815;51.100;6.516;2023-11-19T09:49:15;17.43;;;4.53;;
29958;SDS011;16815;51.100;6.516;2023-11-19T09:51:45;19.63;;;4.73;;
29958;SDS011;16815;51.100;6.516;2023-11-19T09:54:11;17.63;;;4.83;;
29958;SDS011;16815;51.100;6.516;2023-11-19T09:56:38;24.03;;;5.70;;
29958;SDS011;16815;51.100;6.516;2023-11-19T09:59:04;21.23;;;4.43;;
29958;SDS011;16815;51.100;6.516;2023-11-19T10:01:30;19.83;;;5.23;;
29958;SDS011;16815;51.100;6.516;2023-11-19T10:03:57;20.40;;;5.47;;
29958;SDS011;16815;51.100;6.516;2023-11-19T10:06:23;19.17;;;4.63;;
29958;SDS011;16815;51.100;6.516;2023-11-19T10:08:51;13.33;;;4.13;;
29958;SDS011;16815;51.100;6.516;2023-11-19T10:11:18;19.97;;;4.30;;
29958;SDS011;16815;51.100;6.516;2023-11-19T10:13:43;17.10;;;4.73;;
29958;SDS011;16815;51.100;6.516;2023-11-19T10:16:12;19.07;;;4.77;;
29958;SDS011;16815;51.100;6.516;2023-11-19T10:18:45;20.50;;;4.63;;
29958;SDS011;16815;51.100;6.516;2023-11-19T10:21:14;19.27;;;4.27;;
29958;SDS011;16815;51.100;6.516;2023-11-19T10:23:47;22.20;;;4.63;;
29958;SDS011;16815;51.100;6.516;2023-11-19T10:26:15;18.60;;;4.83;;
29958;SDS011;16815;51.100;6.516;2023-11-19T10:28:41;16.70;;;4.47;;
29958;SDS011;16815;51.100;6.516;2023-11-19T10:31:09;18.80;;;4.13;;
29958;SDS011;16815;51.100;6.516;2023-11-19T10:33:35;18.60;;;4.43;;
29958;SDS011;16815;51.100;6.516;2023-11-19T10:36:01;19.73;;;4.83;;
29958;SDS011;16815;51.100;6.516;2023-11-19T10:38:27;17.17;;;4.17;;
29958;SDS011;16815;51.100;6.516;2023-11-19T10:40:53;19.77;;;4.67;;
29958;SDS011;16815;51.100;6.516;2023-11-19T10:43:20;18.27;;;4.73;;
29958;SDS011;16815;51.100;6.516;2023-11-19T10:45:48;18.27;;;4.33;;
29958;SDS011;16815;51.100;6.516;2023-11-19T10:48:14;17.23;;;4.53;;
29958;SDS011;16815;51.100;6.516;2023-11-19T10:50:41;20.23;;;5.07;;
29958;SDS011;16815;51.100;6.516;2023-11-19T10:53:08;20.80;;;4.57;;
29958;SDS011;16815;51.100;6.516;2023-11-19T10:55:35;14.07;;;3.67;;
29958;SDS011;16815;51.100;6.516;2023-11-19T10:58:03;18.80;;;4.07;;
29958;SDS011;16815;51.100;6.516;2023-11-19T11:00:30;13.90;;;3.77;;
29958;SDS011;16815;51.100;6.516;2023-11-19T11:03:00;13.47;;;3.43;;
29958;SDS011;16815;51.100;6.516;2023-11-19T11:05:27;16.13;;;3.70;;
29958;SDS011;16815;51.100;6.516;2023-11-19T11:07:57;16.53;;;3.77;;
29958;SDS011;16815;51.100;6.516;2023-11-19T11:10:25;12.17;;;3.90;;
29958;SDS011;16815;51.100;6.516;2023-11-19T11:12:51;16.80;;;4.33;;
29958;SDS011;16815;51.100;6.516;2023-11-19T11:15:24;20.50;;;4.67;;
29958;SDS011;16815;51.100;6.516;2023-11-19T11:17:54;18.20;;;4.13;;
29958;SDS011;16815;51.100;6.516;2023-11-19T11:20:23;15.63;;;4.77;;
29958;SDS011;16815;51.100;6.516;2023-11-19T11:22:57;16.50;;;3.90;;
29958;SDS011;16815;51.100;6.516;2023-11-19T11:25:33;16.80;;;3.50;;
29958;SDS011;16815;51.100;6.516;2023-11-19T11:28:05;16.90;;;3.73;;
29958;SDS011;16815;51.100;6.516;2023-11-19T11:30:37;15.43;;;3.63;;
29958;SDS011;16815;51.100;6.516;2023-11-19T11:35:58;21.17;;;4.53;;
29958;SDS011;16815;51.100;6.516;2023-11-19T11:38:30;14.90;;;3.23;;
29958;SDS011;16815;51.100;6.516;2023-11-19T11:43:47;13.33;;;3.57;;
29958;SDS011;16815;51.100;6.516;2023-11-19T11:48:59;15.93;;;3.53;;
29958;SDS011;16815;51.100;6.516;2023-11-19T12:49:38;13.80;;;4.30;;
29958;SDS011;16815;51.100;6.516;2023-11-19T12:52:22;12.70;;;3.63;;
29958;SDS011;16815;51.100;6.516;2023-11-19T17:12:12;14.13;;;4.17;;
29958;SDS011;16815;51.100;6.516;2023-11-19T17:22:57;23.20;;;4.87;;
29958;SDS011;16815;51.100;6.516;2023-11-19T17:28:04;14.87;;;4.33;;
29958;SDS011;16815;51.100;6.516;2023-11-19T17:30:33;15.20;;;3.73;;
29958;SDS011;16815;51.100;6.516;2023-11-19T17:32:59;16.83;;;4.27;;
29958;SDS011;16815;51.100;6.516;2023-11-19T17:35:26;16.17;;;4.37;;
29958;SDS011;16815;51.100;6.516;2023-11-19T17:37:52;16.10;;;4.70;;
29958;SDS011;16815;51.100;6.516;2023-11-19T17:40:18;14.60;;;4.17;;
29958;SDS011;16815;51.100;6.516;2023-11-19T17:42:46;19.17;;;4.00;;
29958;SDS011;16815;51.100;6.516;2023-11-19T17:45:11;15.70;;;4.70;;
29958;SDS011;16815;51.100;6.516;2023-11-19T17:47:39;13.43;;;3.80;;
29958;SDS011;16815;51.100;6.516;2023-11-19T17:50:05;11.97;;;3.53;;
29958;SDS011;16815;51.100;6.516;2023-11-19T17:52:31;14.80;;;4.33;;
29958;SDS011;16815;51.100;6.516;2023-11-19T17:54:57;18.40;;;4.13;;
29958;SDS011;16815;51.100;6.516;2023-11-19T17:57:23;17.10;;;3.97;;
29958;SDS011;16815;51.100;6.516;2023-11-19T17:59:49;18.70;;;4.40;;
29958;SDS011;16815;51.100;6.516;2023-11-19T18:02:16;12.63;;;4.17;;
29958;SDS011;16815;51.100;6.516;2023-11-19T18:04:46;14.67;;;4.53;;
29958;SDS011;16815;51.100;6.516;2023-11-19T18:07:15;16.20;;;4.20;;
29958;SDS011;16815;51.100;6.516;2023-11-19T18:09:45;16.73;;;3.80;;
29958;SDS011;16815;51.100;6.516;2023-11-19T18:12:11;11.17;;;3.40;;
29958;SDS011;16815;51.100;6.516;2023-11-19T18:14:37;17.80;;;3.73;;
29958;SDS011;16815;51.100;6.516;2023-11-19T18:17:03;11.50;;;3.33;;
29958;SDS011;16815;51.100;6.516;2023-11-19T18:19:30;11.17;;;3.50;;
29958;SDS011;16815;51.100;6.516;2023-11-19T18:21:56;13.77;;;3.70;;
29958;SDS011;16815;51.100;6.516;2023-11-19T18:24:23;15.67;;;3.77;;
29958;SDS011;16815;51.100;6.516;2023-11-19T18:26:49;13.60;;;3.57;;
29958;SDS011;16815;51.100;6.516;2023-11-19T18:29:16;17.50;;;3.70;;
29958;SDS011;16815;51.100;6.516;2023-11-19T18:31:42;16.73;;;3.90;;
29958;SDS011;16815;51.100;6.516;2023-11-19T18:34:08;18.93;;;4.03;;
29958;SDS011;16815;51.100;6.516;2023-11-19T18:36:34;20.07;;;4.73;;
29958;SDS011;16815;51.100;6.516;2023-11-19T18:39:04;16.43;;;4.30;;
29958;SDS011;16815;51.100;6.516;2023-11-19T18:41:30;16.80;;;4.90;;
29958;SDS011;16815;51.100;6.516;2023-11-19T18:43:56;15.17;;;3.53;;
29958;SDS011;16815;51.100;6.516;2023-11-19T18:46:22;16.90;;;4.10;;
29958;SDS011;16815;51.100;6.516;2023-11-19T18:48:48;14.37;;;3.80;;
29958;SDS011;16815;51.100;6.516;2023-11-19T18:51:14;16.17;;;3.70;;
29958;SDS011;16815;51.100;6.516;2023-11-19T18:53:40;18.43;;;4.57;;
29958;SDS011;16815;51.100;6.516;2023-11-19T18:56:07;20.87;;;4.40;;
29958;SDS011;16815;51.100;6.516;2023-11-19T18:58:33;12.67;;;4.43;;
29958;SDS011;16815;51.100;6.516;2023-11-19T19:00:59;15.40;;;3.97;;
29958;SDS011;16815;51.100;6.516;2023-11-19T19:03:25;15.47;;;3.73;;
29958;SDS011;16815;51.100;6.516;2023-11-19T19:05:55;13.40;;;3.33;;
29958;SDS011;16815;51.100;6.516;2023-11-19T19:08:21;14.03;;;3.80;;
29958;SDS011;16815;51.100;6.516;2023-11-19T19:10:47;11.23;;;3.33;;
29958;SDS011;16815;51.100;6.516;2023-11-19T19:13:13;14.20;;;3.47;;
29958;SDS011;16815;51.100;6.516;2023-11-19T19:15:39;15.60;;;3.90;;
29958;SDS011;16815;51.100;6.516;2023-11-19T19:18:05;11.27;;;3.30;;
29958;SDS011;16815;51.100;6.516;2023-11-19T19:20:31;13.77;;;3.57;;
29958;SDS011;16815;51.100;6.516;2023-11-19T19:22:57;15.30;;;3.80;;
29958;SDS011;16815;51.100;6.516;2023-11-19T19:25:23;12.43;;;3.70;;
29958;SDS011;16815;51.100;6.516;2023-11-19T19:27:52;13.77;;;3.23;;
29958;SDS011;16815;51.100;6.516;2023-11-19T19:30:18;16.20;;;4.10;;
29958;SDS011;16815;51.100;6.516;2023-11-19T19:32:45;11.17;;;3.13;;
29958;SDS011;16815;51.100;6.516;2023-11-19T19:35:11;12.90;;;3.57;;
29958;SDS011;16815;51.100;6.516;2023-11-19T19:37:41;12.90;;;3.37;;
29958;SDS011;16815;51.100;6.516;2023-11-19T19:40:07;19.07;;;4.03;;
29958;SDS011;16815;51.100;6.516;2023-11-19T19:42:36;15.40;;;3.47;;
29958;SDS011;16815;51.100;6.516;2023-11-19T19:45:02;9.53;;;3.03;;
29958;SDS011;16815;51.100;6.516;2023-11-19T19:47:28;10.90;;;3.17;;
29958;SDS011;16815;51.100;6.516;2023-11-19T19:49:54;11.40;;;2.83;;
29958;SDS011;16815;51.100;6.516;2023-11-19T19:52:20;15.47;;;3.67;;
29958;SDS011;16815;51.100;6.516;2023-11-19T19:54:46;12.47;;;3.20;;
29958;SDS011;16815;51.100;6.516;2023-11-19T19:57:12;10.20;;;2.77;;
29958;SDS011;16815;51.100;6.516;2023-11-19T19:59:38;11.93;;;3.37;;
29958;SDS011;16815;51.100;6.516;2023-11-19T20:02:04;16.17;;;3.20;;
29958;SDS011;16815;51.100;6.516;2023-11-19T20:04:31;13.67;;;3.30;;
29958;SDS011;16815;51.100;6.516;2023-11-19T20:06:57;10.97;;;3.43;;
29958;SDS011;16815;51.100;6.516;2023-11-19T20:09:23;11.47;;;3.47;;
29958;SDS011;16815;51.100;6.516;2023-11-19T20:11:49;8.73;;;2.67;;
29958;SDS011;16815;51.100;6.516;2023-11-19T20:14:17;8.80;;;2.70;;
29958;SDS011;16815;51.100;6.516;2023-11-19T20:16:47;11.53;;;3.00;;
29958;SDS011;16815;51.100;6.516;2023-11-19T20:19:14;10.00;;;2.90;;
29958;SDS011;16815;51.100;6.516;2023-11-19T20:21:40;8.93;;;3.00;;
29958;SDS011;16815;51.100;6.516;2023-11-19T20:24:06;9.97;;;3.20;;
29958;SDS011;16815;51.100;6.516;2023-11-19T20:26:34;9.23;;;3.40;;
29958;SDS011;16815;51.100;6.516;2023-11-19T20:29:00;8.77;;;3.10;;
29958;SDS011;16815;51.100;6.516;2023-11-19T20:31:26;10.33;;;2.90;;
29958;SDS011;16815;51.100;6.516;2023-11-19T20:33:52;12.70;;;3.03;;
29958;SDS011;16815;51.100;6.516;2023-11-19T20:36:18;9.80;;;2.90;;
29958;SDS011;16815;51.100;6.516;2023-11-19T20:38:44;13.90;;;2.97;;
29958;SDS011;16815;51.100;6.516;2023-11-19T20:41:10;9.27;;;2.83;;
29958;SDS011;16815;51.100;6.516;2023-11-19T20:43:36;9.30;;;2.90;;
29958;SDS011;16815;51.100;6.516;2023-11-19T20:46:08;8.57;;;2.67;;
29958;SDS011;16815;51.100;6.516;2023-11-19T20:48:34;8.03;;;2.60;;
29958;SDS011;16815;51.100;6.516;2023-11-19T20:51:00;10.30;;;2.70;;
29958;SDS011;16815;51.100;6.516;2023-11-19T20:53:26;11.00;;;2.97;;
29958;SDS011;16815;51.100;6.516;2023-11-19T20:55:52;8.17;;;2.87;;
29958;SDS011;16815;51.100;6.516;2023-11-19T20:58:18;6.77;;;2.33;;
29958;SDS011;16815;51.100;6.516;2023-11-19T21:00:44;10.17;;;2.57;;
29958;SDS011;16815;51.100;6.516;2023-11-19T21:03:11;8.43;;;2.63;;
29958;SDS011;16815;51.100;6.516;2023-11-19T21:05:37;7.43;;;2.27;;
29958;SDS011;16815;51.100;6.516;2023-11-19T21:08:04;9.47;;;2.47;;